< < Back
Terminal Aerodrome Forecast


Current Version              Previous Versions:   1  2  3  4  5  6  7  8  9  

Terminal Aerodrome Forecast

105
FTUS42 KGSP 270540
TAFAND
TAF
KAND 270540Z 2706/2806 21007KT P6SM OVC080
     FM270800 23008KT P6SM SCT250
     FM271300 27013KT P6SM FEW250
     FM272300 30009KT P6SM FEW250
     FM280500 31004KT P6SM FEW250=

Latest METAR

770
SAUS70 KWBC 280400 RRA
MTRAND
METAR KAND 280356Z AUTO 31008KT 10SM CLR 03/M04 A3031 RMK AO2 SLP264
T00281039


USA.gov is the U.S. government's official web portal to all federal, state and local government web resources and services.